sensor_id;sensor_type;location;lat;lon;timestamp;temperature;humidity
50969;DHT22;36982;51.474;7.228;2023-03-18T00:00:01;12.90;1.00
50969;DHT22;36982;51.474;7.228;2023-03-18T00:02:34;12.90;1.00
50969;DHT22;36982;51.474;7.228;2023-03-18T00:05:00;12.90;1.00
50969;DHT22;36982;51.474;7.228;2023-03-18T00:07:25;12.90;1.00
50969;DHT22;36982;51.474;7.228;2023-03-18T00:09:51;12.80;1.00
50969;DHT22;36982;51.474;7.228;2023-03-18T00:12:17;12.80;1.00
50969;DHT22;36982;51.474;7.228;2023-03-18T00:14:42;12.70;1.00
50969;DHT22;36982;51.474;7.228;2023-03-18T00:17:08;12.70;1.00
50969;DHT22;36982;51.474;7.228;2023-03-18T00:19:34;12.70;1.00
50969;DHT22;36982;51.474;7.228;2023-03-18T00:21:59;12.60;1.00
50969;DHT22;36982;51.474;7.228;2023-03-18T00:24:25;12.60;1.00
50969;DHT22;36982;51.474;7.228;2023-03-18T00:26:52;12.70;1.00
50969;DHT22;36982;51.474;7.228;2023-03-18T00:29:18;12.60;1.00
50969;DHT22;36982;51.474;7.228;2023-03-18T00:31:44;12.60;1.00
50969;DHT22;36982;51.474;7.228;2023-03-18T00:34:11;12.80;1.00
50969;DHT22;36982;51.474;7.228;2023-03-18T00:36:37;12.50;1.00
50969;DHT22;36982;51.474;7.228;2023-03-18T00:39:04;12.60;1.00
50969;DHT22;36982;51.474;7.228;2023-03-18T00:41:30;12.50;1.00
50969;DHT22;36982;51.474;7.228;2023-03-18T00:43:57;12.40;1.00
50969;DHT22;36982;51.474;7.228;2023-03-18T00:46:39;12.50;1.00
50969;DHT22;36982;51.474;7.228;2023-03-18T00:49:06;12.60;1.00
50969;DHT22;36982;51.474;7.228;2023-03-18T00:51:36;12.60;1.00
50969;DHT22;36982;51.474;7.228;2023-03-18T00:54:05;12.60;1.00
50969;DHT22;36982;51.474;7.228;2023-03-18T00:56:33;12.60;1.00
50969;DHT22;36982;51.474;7.228;2023-03-18T00:58:59;12.50;1.00
50969;DHT22;36982;51.474;7.228;2023-03-18T01:01:26;12.40;1.00
50969;DHT22;36982;51.474;7.228;2023-03-18T01:03:52;12.40;1.00
50969;DHT22;36982;51.474;7.228;2023-03-18T01:06:22;12.40;6.00
50969;DHT22;36982;51.474;7.228;2023-03-18T01:08:49;12.40;8.90
50969;DHT22;36982;51.474;7.228;2023-03-18T01:11:15;12.40;5.20
50969;DHT22;36982;51.474;7.228;2023-03-18T01:13:41;12.30;4.20
50969;DHT22;36982;51.474;7.228;2023-03-18T01:16:08;12.30;7.10
50969;DHT22;36982;51.474;7.228;2023-03-18T01:18:34;12.20;7.60
50969;DHT22;36982;51.474;7.228;2023-03-18T01:21:01;12.20;8.10
50969;DHT22;36982;51.474;7.228;2023-03-18T01:23:27;12.20;10.10
50969;DHT22;36982;51.474;7.228;2023-03-18T01:25:54;12.10;8.90
50969;DHT22;36982;51.474;7.228;2023-03-18T01:28:20;12.10;7.10
50969;DHT22;36982;51.474;7.228;2023-03-18T01:30:46;12.00;16.60
50969;DHT22;36982;51.474;7.228;2023-03-18T01:33:12;11.90;22.80
50969;DHT22;36982;51.474;7.228;2023-03-18T01:35:39;11.80;27.50
50969;DHT22;36982;51.474;7.228;2023-03-18T01:38:05;11.90;23.30
50969;DHT22;36982;51.474;7.228;2023-03-18T01:40:34;12.00;19.40
50969;DHT22;36982;51.474;7.228;2023-03-18T01:43:18;12.00;19.40
50969;DHT22;36982;51.474;7.228;2023-03-18T01:45:50;12.20;16.00
50969;DHT22;36982;51.474;7.228;2023-03-18T01:48:17;12.20;15.00
50969;DHT22;36982;51.474;7.228;2023-03-18T01:50:48;12.10;20.00
50969;DHT22;36982;51.474;7.228;2023-03-18T01:53:16;12.10;17.90
50969;DHT22;36982;51.474;7.228;2023-03-18T01:55:44;12.10;21.60
50969;DHT22;36982;51.474;7.228;2023-03-18T01:58:24;12.00;23.40
50969;DHT22;36982;51.474;7.228;2023-03-18T02:01:00;12.00;25.40
50969;DHT22;36982;51.474;7.228;2023-03-18T02:03:27;12.10;24.30
50969;DHT22;36982;51.474;7.228;2023-03-18T02:05:53;12.20;20.60
50969;DHT22;36982;51.474;7.228;2023-03-18T02:08:19;12.30;18.00
50969;DHT22;36982;51.474;7.228;2023-03-18T02:10:46;12.30;16.00
50969;DHT22;36982;51.474;7.228;2023-03-18T02:13:13;12.30;16.20
50969;DHT22;36982;51.474;7.228;2023-03-18T02:15:48;12.30;15.00
50969;DHT22;36982;51.474;7.228;2023-03-18T02:18:23;12.50;11.70
50969;DHT22;36982;51.474;7.228;2023-03-18T02:24:10;12.60;6.50
50969;DHT22;36982;51.474;7.228;2023-03-18T02:29:39;12.50;9.00
50969;DHT22;36982;51.474;7.228;2023-03-18T02:32:07;12.50;15.50
50969;DHT22;36982;51.474;7.228;2023-03-18T02:34:34;12.50;14.10
50969;DHT22;36982;51.474;7.228;2023-03-18T02:37:01;12.50;14.60
50969;DHT22;36982;51.474;7.228;2023-03-18T02:39:27;12.50;14.00
50969;DHT22;36982;51.474;7.228;2023-03-18T02:41:55;12.40;17.80
50969;DHT22;36982;51.474;7.228;2023-03-18T02:44:21;12.30;22.40
50969;DHT22;36982;51.474;7.228;2023-03-18T02:46:56;12.40;20.20
50969;DHT22;36982;51.474;7.228;2023-03-18T02:49:24;12.30;22.40
50969;DHT22;36982;51.474;7.228;2023-03-18T02:51:52;12.20;26.10
50969;DHT22;36982;51.474;7.228;2023-03-18T02:54:24;12.10;28.00
50969;DHT22;36982;51.474;7.228;2023-03-18T02:56:51;12.10;31.50
50969;DHT22;36982;51.474;7.228;2023-03-18T02:59:17;12.00;35.00
50969;DHT22;36982;51.474;7.228;2023-03-18T03:01:45;12.00;37.10
50969;DHT22;36982;51.474;7.228;2023-03-18T03:04:11;11.90;41.10
50969;DHT22;36982;51.474;7.228;2023-03-18T03:06:37;11.80;44.70
50969;DHT22;36982;51.474;7.228;2023-03-18T03:09:04;11.90;52.20
50969;DHT22;36982;51.474;7.228;2023-03-18T03:11:30;11.80;53.30
50969;DHT22;36982;51.474;7.228;2023-03-18T03:13:56;11.80;55.50
50969;DHT22;36982;51.474;7.228;2023-03-18T03:16:22;11.70;59.10
50969;DHT22;36982;51.474;7.228;2023-03-18T03:18:48;11.70;60.50
50969;DHT22;36982;51.474;7.228;2023-03-18T03:21:15;11.60;62.10
50969;DHT22;36982;51.474;7.228;2023-03-18T03:23:44;11.50;64.80
50969;DHT22;36982;51.474;7.228;2023-03-18T03:26:10;11.50;67.10
50969;DHT22;36982;51.474;7.228;2023-03-18T03:28:36;11.40;69.20
50969;DHT22;36982;51.474;7.228;2023-03-18T03:31:03;11.50;72.30
50969;DHT22;36982;51.474;7.228;2023-03-18T03:33:28;11.50;74.70
50969;DHT22;36982;51.474;7.228;2023-03-18T03:35:54;11.60;72.10
50969;DHT22;36982;51.474;7.228;2023-03-18T03:38:20;11.60;73.50
50969;DHT22;36982;51.474;7.228;2023-03-18T03:40:47;11.40;74.80
50969;DHT22;36982;51.474;7.228;2023-03-18T03:43:14;11.40;75.60
50969;DHT22;36982;51.474;7.228;2023-03-18T03:45:40;11.40;77.30
50969;DHT22;36982;51.474;7.228;2023-03-18T03:48:07;11.40;77.60
50969;DHT22;36982;51.474;7.228;2023-03-18T03:50:33;11.30;80.20
50969;DHT22;36982;51.474;7.228;2023-03-18T03:52:59;11.20;81.00
50969;DHT22;36982;51.474;7.228;2023-03-18T03:55:24;11.20;83.90
50969;DHT22;36982;51.474;7.228;2023-03-18T03:57:50;11.10;85.10
50969;DHT22;36982;51.474;7.228;2023-03-18T04:00:18;11.00;86.10
50969;DHT22;36982;51.474;7.228;2023-03-18T04:02:46;11.00;87.00
50969;DHT22;36982;51.474;7.228;2023-03-18T04:05:12;11.00;87.30
50969;DHT22;36982;51.474;7.228;2023-03-18T04:07:39;10.90;88.10
50969;DHT22;36982;51.474;7.228;2023-03-18T04:10:06;10.80;89.50
50969;DHT22;36982;51.474;7.228;2023-03-18T04:12:34;10.90;88.20
50969;DHT22;36982;51.474;7.228;2023-03-18T04:15:00;10.90;89.80
50969;DHT22;36982;51.474;7.228;2023-03-18T04:17:25;10.90;89.60
50969;DHT22;36982;51.474;7.228;2023-03-18T04:19:51;10.90;90.00
50969;DHT22;36982;51.474;7.228;2023-03-18T04:22:17;10.80;90.40
50969;DHT22;36982;51.474;7.228;2023-03-18T04:24:43;10.80;91.30
50969;DHT22;36982;51.474;7.228;2023-03-18T04:27:09;10.90;91.70
50969;DHT22;36982;51.474;7.228;2023-03-18T04:29:36;10.90;90.50
50969;DHT22;36982;51.474;7.228;2023-03-18T04:32:01;10.90;91.20
50969;DHT22;36982;51.474;7.228;2023-03-18T04:34:27;10.90;92.80
50969;DHT22;36982;51.474;7.228;2023-03-18T04:36:53;11.00;92.00
50969;DHT22;36982;51.474;7.228;2023-03-18T04:39:20;11.20;92.40
50969;DHT22;36982;51.474;7.228;2023-03-18T04:41:46;11.10;92.00
50969;DHT22;36982;51.474;7.228;2023-03-18T04:44:11;11.10;91.50
50969;DHT22;36982;51.474;7.228;2023-03-18T04:46:38;11.10;91.00
50969;DHT22;36982;51.474;7.228;2023-03-18T04:49:03;11.20;89.50
50969;DHT22;36982;51.474;7.228;2023-03-18T04:51:29;11.10;90.60
50969;DHT22;36982;51.474;7.228;2023-03-18T04:53:55;11.20;91.40
50969;DHT22;36982;51.474;7.228;2023-03-18T04:56:20;11.20;91.50
50969;DHT22;36982;51.474;7.228;2023-03-18T04:58:46;11.20;91.80
50969;DHT22;36982;51.474;7.228;2023-03-18T05:01:12;11.30;91.90
50969;DHT22;36982;51.474;7.228;2023-03-18T05:03:39;11.40;91.40
50969;DHT22;36982;51.474;7.228;2023-03-18T05:06:05;11.40;91.30
50969;DHT22;36982;51.474;7.228;2023-03-18T05:08:32;11.40;91.20
50969;DHT22;36982;51.474;7.228;2023-03-18T05:10:59;11.40;89.80
50969;DHT22;36982;51.474;7.228;2023-03-18T05:13:24;11.50;88.80
50969;DHT22;36982;51.474;7.228;2023-03-18T05:15:50;11.50;89.40
50969;DHT22;36982;51.474;7.228;2023-03-18T05:18:16;11.50;89.00
50969;DHT22;36982;51.474;7.228;2023-03-18T05:20:42;11.60;86.90
50969;DHT22;36982;51.474;7.228;2023-03-18T05:23:08;11.70;86.00
50969;DHT22;36982;51.474;7.228;2023-03-18T05:25:34;11.70;85.40
50969;DHT22;36982;51.474;7.228;2023-03-18T05:28:00;11.70;85.00
50969;DHT22;36982;51.474;7.228;2023-03-18T05:30:26;11.60;86.60
50969;DHT22;36982;51.474;7.228;2023-03-18T05:32:52;11.60;87.50
50969;DHT22;36982;51.474;7.228;2023-03-18T05:35:18;11.70;86.00
50969;DHT22;36982;51.474;7.228;2023-03-18T05:37:44;11.80;83.70
50969;DHT22;36982;51.474;7.228;2023-03-18T05:40:10;11.80;82.90
50969;DHT22;36982;51.474;7.228;2023-03-18T05:42:37;11.90;80.50
50969;DHT22;36982;51.474;7.228;2023-03-18T05:45:06;11.90;78.40
50969;DHT22;36982;51.474;7.228;2023-03-18T05:47:32;11.90;79.70
50969;DHT22;36982;51.474;7.228;2023-03-18T05:49:58;11.90;78.00
50969;DHT22;36982;51.474;7.228;2023-03-18T05:52:24;11.80;79.00
50969;DHT22;36982;51.474;7.228;2023-03-18T05:54:49;11.80;78.90
50969;DHT22;36982;51.474;7.228;2023-03-18T05:57:15;11.80;80.30
50969;DHT22;36982;51.474;7.228;2023-03-18T05:59:41;11.90;78.10
50969;DHT22;36982;51.474;7.228;2023-03-18T06:02:07;11.90;74.70
50969;DHT22;36982;51.474;7.228;2023-03-18T06:04:32;11.90;73.40
50969;DHT22;36982;51.474;7.228;2023-03-18T06:06:58;11.90;73.30
50969;DHT22;36982;51.474;7.228;2023-03-18T06:09:25;11.90;75.30
50969;DHT22;36982;51.474;7.228;2023-03-18T06:11:51;11.80;78.50
50969;DHT22;36982;51.474;7.228;2023-03-18T06:14:17;11.80;75.30
50969;DHT22;36982;51.474;7.228;2023-03-18T06:16:43;11.80;77.50
50969;DHT22;36982;51.474;7.228;2023-03-18T06:19:10;11.90;76.50
50969;DHT22;36982;51.474;7.228;2023-03-18T06:21:37;11.90;74.30
50969;DHT22;36982;51.474;7.228;2023-03-18T06:24:03;11.90;72.20
50969;DHT22;36982;51.474;7.228;2023-03-18T06:26:29;12.00;71.50
50969;DHT22;36982;51.474;7.228;2023-03-18T06:28:55;12.00;70.80
50969;DHT22;36982;51.474;7.228;2023-03-18T06:31:23;12.00;71.50
50969;DHT22;36982;51.474;7.228;2023-03-18T06:33:48;12.00;70.30
50969;DHT22;36982;51.474;7.228;2023-03-18T06:36:14;11.90;75.20
50969;DHT22;36982;51.474;7.228;2023-03-18T06:38:41;12.00;74.30
50969;DHT22;36982;51.474;7.228;2023-03-18T06:41:07;12.00;69.80
50969;DHT22;36982;51.474;7.228;2023-03-18T06:43:33;12.20;68.30
50969;DHT22;36982;51.474;7.228;2023-03-18T06:45:59;12.00;70.20
50969;DHT22;36982;51.474;7.228;2023-03-18T06:48:25;12.10;70.60
50969;DHT22;36982;51.474;7.228;2023-03-18T06:50:50;12.00;71.40
50969;DHT22;36982;51.474;7.228;2023-03-18T06:53:16;12.00;69.20
50969;DHT22;36982;51.474;7.228;2023-03-18T06:55:42;12.10;67.60
50969;DHT22;36982;51.474;7.228;2023-03-18T06:58:08;12.20;66.80
50969;DHT22;36982;51.474;7.228;2023-03-18T07:00:34;12.40;64.50
50969;DHT22;36982;51.474;7.228;2023-03-18T07:03:00;12.20;68.50
50969;DHT22;36982;51.474;7.228;2023-03-18T07:05:27;12.10;66.30
50969;DHT22;36982;51.474;7.228;2023-03-18T07:07:53;12.00;68.30
50969;DHT22;36982;51.474;7.228;2023-03-18T07:10:24;12.00;73.40
50969;DHT22;36982;51.474;7.228;2023-03-18T07:12:52;12.00;70.70
50969;DHT22;36982;51.474;7.228;2023-03-18T07:15:18;12.00;71.50
50969;DHT22;36982;51.474;7.228;2023-03-18T07:17:46;12.10;70.10
50969;DHT22;36982;51.474;7.228;2023-03-18T07:20:11;12.10;68.90
50969;DHT22;36982;51.474;7.228;2023-03-18T07:22:37;12.20;73.70
50969;DHT22;36982;51.474;7.228;2023-03-18T07:25:03;12.30;65.10
50969;DHT22;36982;51.474;7.228;2023-03-18T07:27:29;12.30;64.70
50969;DHT22;36982;51.474;7.228;2023-03-18T07:29:54;12.70;63.70
50969;DHT22;36982;51.474;7.228;2023-03-18T07:32:21;12.60;56.10
50969;DHT22;36982;51.474;7.228;2023-03-18T07:34:48;12.60;59.40
50969;DHT22;36982;51.474;7.228;2023-03-18T07:37:13;12.80;57.40
50969;DHT22;36982;51.474;7.228;2023-03-18T07:39:39;12.60;46.60
50969;DHT22;36982;51.474;7.228;2023-03-18T07:42:05;12.80;51.80
50969;DHT22;36982;51.474;7.228;2023-03-18T07:44:30;12.80;51.40
50969;DHT22;36982;51.474;7.228;2023-03-18T07:46:56;12.90;45.70
50969;DHT22;36982;51.474;7.228;2023-03-18T07:49:22;13.00;47.50
50969;DHT22;36982;51.474;7.228;2023-03-18T07:51:48;13.10;36.40
50969;DHT22;36982;51.474;7.228;2023-03-18T07:54:14;13.00;39.70
50969;DHT22;36982;51.474;7.228;2023-03-18T07:56:40;13.10;35.60
50969;DHT22;36982;51.474;7.228;2023-03-18T07:59:06;13.30;33.50
50969;DHT22;36982;51.474;7.228;2023-03-18T08:01:32;13.20;31.60
50969;DHT22;36982;51.474;7.228;2023-03-18T08:03:57;13.40;31.90
50969;DHT22;36982;51.474;7.228;2023-03-18T08:06:23;13.40;26.60
50969;DHT22;36982;51.474;7.228;2023-03-18T08:08:49;13.40;27.20
50969;DHT22;36982;51.474;7.228;2023-03-18T08:11:15;13.40;26.30
50969;DHT22;36982;51.474;7.228;2023-03-18T08:13:41;13.50;23.50
50969;DHT22;36982;51.474;7.228;2023-03-18T08:16:07;13.50;24.50
50969;DHT22;36982;51.474;7.228;2023-03-18T08:18:33;13.50;18.70
50969;DHT22;36982;51.474;7.228;2023-03-18T08:20:59;13.50;20.60
50969;DHT22;36982;51.474;7.228;2023-03-18T08:23:25;13.50;21.00
50969;DHT22;36982;51.474;7.228;2023-03-18T08:25:50;13.50;19.30
50969;DHT22;36982;51.474;7.228;2023-03-18T08:28:17;13.60;13.20
50969;DHT22;36982;51.474;7.228;2023-03-18T08:30:43;13.70;4.70
50969;DHT22;36982;51.474;7.228;2023-03-18T08:33:09;13.80;13.10
50969;DHT22;36982;51.474;7.228;2023-03-18T08:35:35;13.60;11.40
50969;DHT22;36982;51.474;7.228;2023-03-18T08:38:01;13.60;6.90
50969;DHT22;36982;51.474;7.228;2023-03-18T08:40:27;13.60;15.80
50969;DHT22;36982;51.474;7.228;2023-03-18T08:42:53;13.80;13.70
50969;DHT22;36982;51.474;7.228;2023-03-18T08:45:19;13.90;1.00
50969;DHT22;36982;51.474;7.228;2023-03-18T08:47:45;13.90;1.00
50969;DHT22;36982;51.474;7.228;2023-03-18T08:50:11;14.10;1.00
50969;DHT22;36982;51.474;7.228;2023-03-18T08:52:37;14.20;1.00
50969;DHT22;36982;51.474;7.228;2023-03-18T08:55:05;14.20;1.00
50969;DHT22;36982;51.474;7.228;2023-03-18T08:57:31;14.30;1.00
50969;DHT22;36982;51.474;7.228;2023-03-18T08:59:57;14.30;1.00
50969;DHT22;36982;51.474;7.228;2023-03-18T09:02:23;14.60;1.00
50969;DHT22;36982;51.474;7.228;2023-03-18T09:04:49;14.80;1.00
50969;DHT22;36982;51.474;7.228;2023-03-18T09:07:15;15.00;1.00
50969;DHT22;36982;51.474;7.228;2023-03-18T09:09:41;14.80;1.00
50969;DHT22;36982;51.474;7.228;2023-03-18T09:12:07;14.90;1.00
50969;DHT22;36982;51.474;7.228;2023-03-18T09:14:33;15.10;1.00
50969;DHT22;36982;51.474;7.228;2023-03-18T09:16:59;15.30;99.90
50969;DHT22;36982;51.474;7.228;2023-03-18T09:19:26;15.20;99.90
50969;DHT22;36982;51.474;7.228;2023-03-18T09:21:52;15.10;1.00
50969;DHT22;36982;51.474;7.228;2023-03-18T09:24:17;15.10;99.90
50969;DHT22;36982;51.474;7.228;2023-03-18T09:26:43;14.90;1.00
50969;DHT22;36982;51.474;7.228;2023-03-18T09:29:09;14.90;1.00
50969;DHT22;36982;51.474;7.228;2023-03-18T09:31:35;14.80;99.90
50969;DHT22;36982;51.474;7.228;2023-03-18T09:34:02;14.80;99.90
50969;DHT22;36982;51.474;7.228;2023-03-18T09:36:28;14.60;1.00
50969;DHT22;36982;51.474;7.228;2023-03-18T09:38:53;14.60;1.00
50969;DHT22;36982;51.474;7.228;2023-03-18T09:44:33;14.80;1.00
50969;DHT22;36982;51.474;7.228;2023-03-18T09:49:47;15.20;99.90
50969;DHT22;36982;51.474;7.228;2023-03-18T09:52:38;15.30;99.90
50969;DHT22;36982;51.474;7.228;2023-03-18T09:57:47;15.30;99.90
50969;DHT22;36982;51.474;7.228;2023-03-18T10:00:28;15.30;99.90
50969;DHT22;36982;51.474;7.228;2023-03-18T10:02:58;15.40;99.90
50969;DHT22;36982;51.474;7.228;2023-03-18T10:05:32;15.40;99.90
50969;DHT22;36982;51.474;7.228;2023-03-18T10:11:02;15.20;99.90
50969;DHT22;36982;51.474;7.228;2023-03-18T10:13:32;15.30;99.90
50969;DHT22;36982;51.474;7.228;2023-03-18T10:16:02;15.30;99.90
50969;DHT22;36982;51.474;7.228;2023-03-18T10:26:59;14.50;99.90
50969;DHT22;36982;51.474;7.228;2023-03-18T10:37:30;15.00;99.90
50969;DHT22;36982;51.474;7.228;2023-03-18T10:40:04;15.30;99.90
50969;DHT22;36982;51.474;7.228;2023-03-18T10:42:37;15.40;99.90
50969;DHT22;36982;51.474;7.228;2023-03-18T10:45:27;15.50;99.90
50969;DHT22;36982;51.474;7.228;2023-03-18T10:48:11;15.70;99.90
50969;DHT22;36982;51.474;7.228;2023-03-18T10:50:53;15.80;99.90
50969;DHT22;36982;51.474;7.228;2023-03-18T10:53:29;15.90;99.90
50969;DHT22;36982;51.474;7.228;2023-03-18T10:56:10;15.90;99.90
50969;DHT22;36982;51.474;7.228;2023-03-18T10:58:40;15.90;99.90
50969;DHT22;36982;51.474;7.228;2023-03-18T11:01:08;15.90;99.90
50969;DHT22;36982;51.474;7.228;2023-03-18T11:03:50;16.00;71.40
50969;DHT22;36982;51.474;7.228;2023-03-18T11:06:23;16.10;16.70
50969;DHT22;36982;51.474;7.228;2023-03-18T11:09:01;16.10;6.90
50969;DHT22;36982;51.474;7.228;2023-03-18T11:11:32;16.30;1.00
50969;DHT22;36982;51.474;7.228;2023-03-18T11:14:00;16.20;1.00
50969;DHT22;36982;51.474;7.228;2023-03-18T11:16:44;16.20;1.00
50969;DHT22;36982;51.474;7.228;2023-03-18T11:21:45;16.10;4.90
50969;DHT22;36982;51.474;7.228;2023-03-18T11:24:24;16.30;1.00
50969;DHT22;36982;51.474;7.228;2023-03-18T11:27:01;16.10;1.00
50969;DHT22;36982;51.474;7.228;2023-03-18T11:29:30;16.10;1.00
50969;DHT22;36982;51.474;7.228;2023-03-18T11:31:59;15.80;1.00
50969;DHT22;36982;51.474;7.228;2023-03-18T11:34:30;15.60;1.00
50969;DHT22;36982;51.474;7.228;2023-03-18T11:37:05;15.70;1.00
50969;DHT22;36982;51.474;7.228;2023-03-18T11:39:34;15.70;1.00
50969;DHT22;36982;51.474;7.228;2023-03-18T11:42:15;15.70;1.00
50969;DHT22;36982;51.474;7.228;2023-03-18T11:44:41;15.90;1.00
50969;DHT22;36982;51.474;7.228;2023-03-18T11:47:18;16.10;1.00
50969;DHT22;36982;51.474;7.228;2023-03-18T11:49:46;16.20;1.00
50969;DHT22;36982;51.474;7.228;2023-03-18T11:52:35;16.20;1.00
50969;DHT22;36982;51.474;7.228;2023-03-18T11:55:08;16.30;99.90
50969;DHT22;36982;51.474;7.228;2023-03-18T12:06:21;16.80;73.10
50969;DHT22;36982;51.474;7.228;2023-03-18T12:27:44;17.40;90.60
50969;DHT22;36982;51.474;7.228;2023-03-18T12:44:50;17.60;99.90
50969;DHT22;36982;51.474;7.228;2023-03-18T12:49:51;17.60;99.90
50969;DHT22;36982;51.474;7.228;2023-03-18T12:55:18;17.80;35.30
50969;DHT22;36982;51.474;7.228;2023-03-18T13:00:33;18.10;99.90
50969;DHT22;36982;51.474;7.228;2023-03-18T13:03:35;17.90;99.90
50969;DHT22;36982;51.474;7.228;2023-03-18T13:09:17;17.80;1.00
50969;DHT22;36982;51.474;7.228;2023-03-18T13:12:03;17.90;99.90
50969;DHT22;36982;51.474;7.228;2023-03-18T13:17:25;17.60;99.90
50969;DHT22;36982;51.474;7.228;2023-03-18T13:19:57;17.70;99.90
50969;DHT22;36982;51.474;7.228;2023-03-18T13:25:33;17.80;98.00
50969;DHT22;36982;51.474;7.228;2023-03-18T13:34:02;18.10;99.90
50969;DHT22;36982;51.474;7.228;2023-03-18T13:37:05;18.30;99.90
50969;DHT22;36982;51.474;7.228;2023-03-18T13:39:57;18.50;99.90
50969;DHT22;36982;51.474;7.228;2023-03-18T13:42:33;18.70;12.80
50969;DHT22;36982;51.474;7.228;2023-03-18T13:45:27;18.90;99.90
50969;DHT22;36982;51.474;7.228;2023-03-18T13:47:56;19.20;99.90
50969;DHT22;36982;51.474;7.228;2023-03-18T13:50:31;19.20;70.70
50969;DHT22;36982;51.474;7.228;2023-03-18T13:52:59;19.00;99.90
50969;DHT22;36982;51.474;7.228;2023-03-18T14:00:37;19.40;6.20
50969;DHT22;36982;51.474;7.228;2023-03-18T14:13:58;18.80;99.90
50969;DHT22;36982;51.474;7.228;2023-03-18T14:22:07;19.30;12.10
50969;DHT22;36982;51.474;7.228;2023-03-18T14:24:38;19.20;1.00
50969;DHT22;36982;51.474;7.228;2023-03-18T14:32:05;18.70;38.10
50969;DHT22;36982;51.474;7.228;2023-03-18T14:37:27;18.50;34.20
50969;DHT22;36982;51.474;7.228;2023-03-18T14:40:05;18.30;94.20
50969;DHT22;36982;51.474;7.228;2023-03-18T14:45:12;17.90;99.90
50969;DHT22;36982;51.474;7.228;2023-03-18T14:47:49;17.90;99.90
50969;DHT22;36982;51.474;7.228;2023-03-18T14:50:46;17.80;99.90
50969;DHT22;36982;51.474;7.228;2023-03-18T14:55:47;17.60;99.90
50969;DHT22;36982;51.474;7.228;2023-03-18T14:58:19;17.40;99.90
50969;DHT22;36982;51.474;7.228;2023-03-18T15:00:49;17.10;1.00
50969;DHT22;36982;51.474;7.228;2023-03-18T15:03:21;16.90;99.90
50969;DHT22;36982;51.474;7.228;2023-03-18T15:05:47;16.60;99.90
50969;DHT22;36982;51.474;7.228;2023-03-18T15:08:19;16.20;99.90
50969;DHT22;36982;51.474;7.228;2023-03-18T15:10:48;16.00;1.00
50969;DHT22;36982;51.474;7.228;2023-03-18T15:13:17;15.90;99.90
50969;DHT22;36982;51.474;7.228;2023-03-18T15:15:43;15.80;99.90
50969;DHT22;36982;51.474;7.228;2023-03-18T15:18:19;15.80;1.00
50969;DHT22;36982;51.474;7.228;2023-03-18T15:20:50;15.90;99.90
50969;DHT22;36982;51.474;7.228;2023-03-18T15:23:24;16.00;99.90
50969;DHT22;36982;51.474;7.228;2023-03-18T15:25:51;16.20;99.90
50969;DHT22;36982;51.474;7.228;2023-03-18T15:28:20;16.20;1.00
50969;DHT22;36982;51.474;7.228;2023-03-18T15:30:54;16.40;1.00
50969;DHT22;36982;51.474;7.228;2023-03-18T15:33:23;16.60;1.00
50969;DHT22;36982;51.474;7.228;2023-03-18T15:35:54;16.60;1.00
50969;DHT22;36982;51.474;7.228;2023-03-18T15:38:26;16.60;1.00
50969;DHT22;36982;51.474;7.228;2023-03-18T15:40:54;16.50;1.00
50969;DHT22;36982;51.474;7.228;2023-03-18T15:43:32;16.50;17.50
50969;DHT22;36982;51.474;7.228;2023-03-18T15:46:05;16.60;83.30
50969;DHT22;36982;51.474;7.228;2023-03-18T15:48:37;16.50;99.90
50969;DHT22;36982;51.474;7.228;2023-03-18T15:51:06;16.40;99.90
50969;DHT22;36982;51.474;7.228;2023-03-18T15:53:40;16.30;99.90
50969;DHT22;36982;51.474;7.228;2023-03-18T15:56:17;16.40;99.90
50969;DHT22;36982;51.474;7.228;2023-03-18T15:58:44;16.40;99.90
50969;DHT22;36982;51.474;7.228;2023-03-18T16:01:14;16.60;99.90
50969;DHT22;36982;51.474;7.228;2023-03-18T16:03:43;16.50;99.90
50969;DHT22;36982;51.474;7.228;2023-03-18T16:06:12;16.50;99.90
50969;DHT22;36982;51.474;7.228;2023-03-18T16:08:38;16.30;99.90
50969;DHT22;36982;51.474;7.228;2023-03-18T16:11:03;16.30;99.90
50969;DHT22;36982;51.474;7.228;2023-03-18T16:13:33;16.20;99.90
50969;DHT22;36982;51.474;7.228;2023-03-18T16:15:59;16.20;99.90
50969;DHT22;36982;51.474;7.228;2023-03-18T16:18:25;16.20;99.90
50969;DHT22;36982;51.474;7.228;2023-03-18T16:20:51;16.00;99.90
50969;DHT22;36982;51.474;7.228;2023-03-18T16:23:18;16.00;99.90
50969;DHT22;36982;51.474;7.228;2023-03-18T16:25:49;16.00;99.90
50969;DHT22;36982;51.474;7.228;2023-03-18T16:28:22;15.90;99.90
50969;DHT22;36982;51.474;7.228;2023-03-18T16:30:49;15.90;99.90
50969;DHT22;36982;51.474;7.228;2023-03-18T16:33:21;15.80;99.90
50969;DHT22;36982;51.474;7.228;2023-03-18T16:35:55;15.80;99.90
50969;DHT22;36982;51.474;7.228;2023-03-18T16:38:22;15.70;99.90
50969;DHT22;36982;51.474;7.228;2023-03-18T16:40:48;15.60;99.90
50969;DHT22;36982;51.474;7.228;2023-03-18T16:43:20;15.50;99.90
50969;DHT22;36982;51.474;7.228;2023-03-18T16:45:50;15.50;99.90
50969;DHT22;36982;51.474;7.228;2023-03-18T16:48:18;15.40;1.00
50969;DHT22;36982;51.474;7.228;2023-03-18T16:50:45;15.30;1.00
50969;DHT22;36982;51.474;7.228;2023-03-18T16:53:13;15.20;1.00
50969;DHT22;36982;51.474;7.228;2023-03-18T16:55:42;15.10;1.00
50969;DHT22;36982;51.474;7.228;2023-03-18T16:58:11;15.10;1.00
50969;DHT22;36982;51.474;7.228;2023-03-18T17:00:37;15.10;1.00
50969;DHT22;36982;51.474;7.228;2023-03-18T17:03:04;15.00;1.00
50969;DHT22;36982;51.474;7.228;2023-03-18T17:05:29;14.90;1.00
50969;DHT22;36982;51.474;7.228;2023-03-18T17:07:55;15.00;1.00
50969;DHT22;36982;51.474;7.228;2023-03-18T17:10:24;14.90;1.00
50969;DHT22;36982;51.474;7.228;2023-03-18T17:13:02;14.90;1.00
50969;DHT22;36982;51.474;7.228;2023-03-18T17:15:32;14.80;1.00
50969;DHT22;36982;51.474;7.228;2023-03-18T17:17:59;14.60;1.00
50969;DHT22;36982;51.474;7.228;2023-03-18T17:20:27;14.50;1.00
50969;DHT22;36982;51.474;7.228;2023-03-18T17:22:53;14.50;2.80
50969;DHT22;36982;51.474;7.228;2023-03-18T17:25:20;14.60;1.00
50969;DHT22;36982;51.474;7.228;2023-03-18T17:27:50;14.50;1.20
50969;DHT22;36982;51.474;7.228;2023-03-18T17:30:22;14.50;6.10
50969;DHT22;36982;51.474;7.228;2023-03-18T17:32:49;14.60;7.40
50969;DHT22;36982;51.474;7.228;2023-03-18T17:35:17;14.40;10.10
50969;DHT22;36982;51.474;7.228;2023-03-18T17:37:43;14.20;17.20
50969;DHT22;36982;51.474;7.228;2023-03-18T17:40:14;14.10;29.10
50969;DHT22;36982;51.474;7.228;2023-03-18T17:42:40;14.00;32.30
50969;DHT22;36982;51.474;7.228;2023-03-18T17:45:27;13.90;35.00
50969;DHT22;36982;51.474;7.228;2023-03-18T17:47:57;13.90;38.20
50969;DHT22;36982;51.474;7.228;2023-03-18T17:50:27;13.70;41.60
50969;DHT22;36982;51.474;7.228;2023-03-18T17:52:52;13.60;47.90
50969;DHT22;36982;51.474;7.228;2023-03-18T17:55:20;13.70;47.60
50969;DHT22;36982;51.474;7.228;2023-03-18T17:57:47;13.70;48.00
50969;DHT22;36982;51.474;7.228;2023-03-18T18:00:17;13.70;49.50